Time;durP1;ratioP1;P1;durP2;ratioP2;P2;SDS_P1;SDS_P2;PMS_P1;PMS_P2;Temp;Humidity;BMP_temperature;BMP_pressure;BME280_temperature;BME280_humidity;BME280_pressure;Samples;Min_cycle;Max_cycle;Signal;HPM_P1;HPM_P2
2023/09/05 00:01:10;;;;;;;3.47;1.25;;;17.00;99.90;;;;;;5077033;28;20032;-75
2023/09/05 00:03:35;;;;;;;0.98;0.80;;;17.00;99.90;;;;;;5076999;28;20535;-76
2023/09/05 00:06:10;;;;;;;2.17;1.08;;;17.00;99.90;;;;;;5076791;28;20102;-76
2023/09/05 00:08:37;;;;;;;3.17;1.02;;;16.90;99.90;;;;;;5059518;28;20017;-76
2023/09/05 00:11:03;;;;;;;2.60;1.38;;;17.00;99.90;;;;;;5058621;28;20013;-76
2023/09/05 00:13:28;;;;;;;1.25;0.73;;;16.90;99.90;;;;;;5076595;28;20047;-76
2023/09/05 00:15:54;;;;;;;4.57;1.05;;;16.90;99.90;;;;;;5058689;28;20032;-76
2023/09/05 00:18:19;;;;;;;3.55;1.20;;;16.90;99.90;;;;;;5077222;28;20017;-76
2023/09/05 00:20:46;;;;;;;1.80;0.95;;;16.90;99.90;;;;;;5077341;28;20452;-76
2023/09/05 00:23:12;;;;;;;2.53;0.75;;;16.90;99.90;;;;;;5076418;28;20033;-76
2023/09/05 00:25:37;;;;;;;1.83;1.08;;;17.00;99.90;;;;;;5076863;28;20025;-75
2023/09/05 00:28:03;;;;;;;1.75;0.63;;;16.90;99.90;;;;;;5076541;28;20048;-76
2023/09/05 00:30:29;;;;;;;1.45;0.85;;;16.90;99.90;;;;;;5058506;28;20417;-73
2023/09/05 00:32:56;;;;;;;2.13;1.25;;;16.80;99.90;;;;;;5058420;28;20440;-72
2023/09/05 00:35:21;;;;;;;3.45;1.00;;;16.80;99.90;;;;;;5076077;28;20372;-72
2023/09/05 00:37:48;;;;;;;3.63;1.20;;;16.70;99.90;;;;;;5075967;28;20036;-73
2023/09/05 00:40:15;;;;;;;1.70;0.80;;;16.70;99.90;;;;;;5076055;28;20021;-73
2023/09/05 00:42:40;;;;;;;1.63;1.10;;;16.70;99.90;;;;;;5076109;28;20103;-73
2023/09/05 00:45:06;;;;;;;2.10;0.85;;;16.70;99.90;;;;;;5075935;28;20501;-73
2023/09/05 00:47:32;;;;;;;1.15;0.73;;;16.60;99.90;;;;;;5075647;28;20064;-72
2023/09/05 00:50:01;;;;;;;2.60;1.27;;;16.60;99.90;;;;;;5075716;28;20404;-73
2023/09/05 00:52:28;;;;;;;2.85;1.30;;;16.60;99.90;;;;;;5075813;28;20023;-73
2023/09/05 00:54:54;;;;;;;4.43;1.23;;;16.60;99.90;;;;;;5056943;28;20050;-73
2023/09/05 00:57:21;;;;;;;1.63;1.15;;;16.60;99.90;;;;;;5075515;28;20017;-73
2023/09/05 00:59:47;;;;;;;2.15;1.45;;;16.60;99.90;;;;;;5058770;28;20439;-73
2023/09/05 01:02:13;;;;;;;2.05;1.40;;;16.60;99.90;;;;;;5075552;28;20024;-73
2023/09/05 01:04:38;;;;;;;3.17;1.10;;;16.50;99.90;;;;;;5057704;28;20060;-73
2023/09/05 01:07:15;;;;;;;3.30;0.82;;;16.50;99.90;;;;;;5057425;28;20028;-73
2023/09/05 01:10:00;;;;;;;3.20;0.95;;;16.50;99.90;;;;;;5057417;28;20507;-73
2023/09/05 01:12:25;;;;;;;2.20;1.48;;;16.50;99.90;;;;;;5075289;28;20039;-73
2023/09/05 01:14:52;;;;;;;1.90;1.45;;;16.50;99.90;;;;;;5075086;28;20107;-72
2023/09/05 01:17:17;;;;;;;1.95;1.23;;;16.50;99.90;;;;;;5075292;28;20044;-73
2023/09/05 01:19:44;;;;;;;0.98;0.73;;;16.50;99.90;;;;;;5075939;28;20429;-73
2023/09/05 01:22:16;;;;;;;3.33;1.20;;;16.50;99.90;;;;;;5075611;28;20533;-73
2023/09/05 01:24:43;;;;;;;4.80;1.27;;;16.40;99.90;;;;;;5075043;28;20032;-73
2023/09/05 01:27:10;;;;;;;3.42;0.77;;;16.40;99.90;;;;;;5075207;28;20029;-73
2023/09/05 01:29:39;;;;;;;4.40;1.67;;;16.40;99.90;;;;;;5075111;28;20024;-73
2023/09/05 01:32:07;;;;;;;2.10;1.15;;;16.40;99.90;;;;;;5075064;28;20021;-73
2023/09/05 01:34:33;;;;;;;2.55;1.38;;;16.30;99.90;;;;;;5074885;28;20028;-72
2023/09/05 01:36:58;;;;;;;1.98;0.88;;;16.30;99.90;;;;;;5074849;28;20028;-73
2023/09/05 01:39:24;;;;;;;4.47;1.20;;;16.20;99.90;;;;;;5057019;28;20111;-73
2023/09/05 01:41:50;;;;;;;2.60;0.73;;;16.20;99.90;;;;;;5074880;28;20020;-73
2023/09/05 01:44:16;;;;;;;3.30;1.05;;;16.20;99.90;;;;;;5074731;28;20029;-73
2023/09/05 01:46:41;;;;;;;2.00;0.80;;;16.20;99.90;;;;;;5056997;28;20021;-73
2023/09/05 01:49:07;;;;;;;2.15;1.13;;;16.20;99.90;;;;;;5075305;28;20421;-73
2023/09/05 01:51:32;;;;;;;3.22;0.73;;;16.10;99.90;;;;;;5074546;28;20545;-73
2023/09/05 01:53:58;;;;;;;5.00;1.10;;;16.20;99.90;;;;;;5074403;28;20506;-73
2023/09/05 01:56:24;;;;;;;1.25;0.73;;;16.10;99.90;;;;;;5075030;28;20110;-73
2023/09/05 01:58:49;;;;;;;5.05;0.80;;;16.20;99.90;;;;;;5074914;28;20051;-73
2023/09/05 02:01:15;;;;;;;2.88;0.95;;;16.20;99.90;;;;;;5056461;28;20090;-73
2023/09/05 02:03:41;;;;;;;3.30;1.15;;;16.10;99.90;;;;;;5074457;28;20185;-73
2023/09/05 02:06:06;;;;;;;2.00;1.20;;;16.10;99.90;;;;;;5074723;28;20372;-73
2023/09/05 02:08:34;;;;;;;2.35;0.82;;;16.10;99.90;;;;;;5073203;28;20585;-73
2023/09/05 02:11:00;;;;;;;2.97;1.10;;;16.10;99.90;;;;;;5074034;28;20418;-73
2023/09/05 02:13:27;;;;;;;2.67;0.60;;;16.10;99.90;;;;;;5056321;28;20021;-73
2023/09/05 02:15:52;;;;;;;0.98;0.65;;;16.10;99.90;;;;;;5073891;28;20029;-73
2023/09/05 02:18:18;;;;;;;1.73;0.90;;;16.10;99.90;;;;;;5073997;28;20061;-73
2023/09/05 02:20:43;;;;;;;4.82;1.00;;;16.10;99.90;;;;;;5074035;28;20050;-73
2023/09/05 02:23:09;;;;;;;1.02;0.60;;;16.10;99.90;;;;;;5056055;28;20027;-73
2023/09/05 02:25:34;;;;;;;3.17;1.00;;;16.00;99.90;;;;;;5056123;28;20105;-73
2023/09/05 02:28:00;;;;;;;1.85;0.80;;;16.00;99.90;;;;;;5073981;28;20020;-73
2023/09/05 02:30:26;;;;;;;1.60;0.60;;;16.00;99.90;;;;;;5074141;28;20372;-73
2023/09/05 02:32:53;;;;;;;2.17;0.73;;;16.00;99.90;;;;;;5073836;28;20076;-72
2023/09/05 02:35:21;;;;;;;2.08;1.35;;;16.00;99.90;;;;;;5074244;28;20480;-73
2023/09/05 02:37:53;;;;;;;4.97;0.95;;;15.90;99.90;;;;;;5073889;28;20077;-73
2023/09/05 02:40:19;;;;;;;3.20;0.93;;;15.90;99.90;;;;;;5073705;28;20025;-73
2023/09/05 02:42:45;;;;;;;3.63;0.95;;;15.80;99.90;;;;;;5074008;28;20472;-73
2023/09/05 02:45:12;;;;;;;1.52;0.93;;;15.90;99.90;;;;;;5073929;28;20099;-73
2023/09/05 02:47:38;;;;;;;2.45;1.27;;;15.80;99.90;;;;;;5074123;28;20028;-73
2023/09/05 02:50:03;;;;;;;3.30;0.80;;;15.80;99.90;;;;;;5073781;28;20099;-73
2023/09/05 02:52:30;;;;;;;1.67;0.88;;;15.80;99.90;;;;;;5073774;28;20032;-72
2023/09/05 02:54:55;;;;;;;4.18;1.52;;;15.80;99.90;;;;;;5073372;28;20021;-72
2023/09/05 02:57:22;;;;;;;1.55;0.88;;;15.70;99.90;;;;;;5073440;28;20031;-73
2023/09/05 02:59:52;;;;;;;1.38;0.80;;;15.70;99.90;;;;;;5055511;28;20112;-71
2023/09/05 03:02:17;;;;;;;3.63;1.67;;;15.70;99.90;;;;;;5073571;28;20365;-73
2023/09/05 03:04:43;;;;;;;2.78;1.33;;;15.70;99.90;;;;;;5073461;28;20024;-73
2023/09/05 03:07:08;;;;;;;2.13;1.33;;;15.70;99.90;;;;;;5073488;28;20096;-71
2023/09/05 03:09:34;;;;;;;3.15;1.42;;;15.60;99.90;;;;;;5073588;28;20075;-73
2023/09/05 03:12:00;;;;;;;4.13;1.85;;;15.60;99.90;;;;;;5073444;28;20050;-73
2023/09/05 03:14:26;;;;;;;3.97;1.63;;;15.60;99.90;;;;;;5073120;28;20108;-73
2023/09/05 03:16:51;;;;;;;4.78;1.58;;;15.60;99.90;;;;;;5073249;28;20045;-73
2023/09/05 03:19:19;;;;;;;2.63;1.30;;;15.60;99.90;;;;;;5077276;28;20017;-73
2023/09/05 03:21:45;;;;;;;1.63;1.10;;;15.60;99.90;;;;;;5061926;28;20029;-73
2023/09/05 03:24:11;;;;;;;3.40;1.75;;;15.60;99.90;;;;;;5079723;28;20788;-73
2023/09/05 03:26:37;;;;;;;2.15;1.42;;;15.60;99.90;;;;;;5079742;28;20028;-73
2023/09/05 03:29:02;;;;;;;3.40;1.67;;;15.60;99.90;;;;;;5079881;28;20095;-73
2023/09/05 03:31:28;;;;;;;2.42;1.33;;;15.50;99.90;;;;;;5062184;28;20545;-73
2023/09/05 03:33:54;;;;;;;1.83;1.05;;;15.50;99.90;;;;;;5061885;28;20064;-73
2023/09/05 03:36:21;;;;;;;3.22;1.40;;;15.50;99.90;;;;;;5061838;28;20028;-72
2023/09/05 03:38:47;;;;;;;3.00;1.88;;;15.50;99.90;;;;;;5079999;28;20024;-73
2023/09/05 03:41:13;;;;;;;4.50;1.90;;;15.40;99.90;;;;;;5079763;28;20031;-73
2023/09/05 03:43:38;;;;;;;3.70;1.27;;;15.40;99.90;;;;;;5079858;28;20387;-73
2023/09/05 03:46:04;;;;;;;4.38;1.85;;;15.40;99.90;;;;;;5079779;28;20029;-73
2023/09/05 03:48:30;;;;;;;2.80;1.60;;;15.40;99.90;;;;;;5061715;28;20017;-73
2023/09/05 03:50:55;;;;;;;3.03;1.45;;;15.40;99.90;;;;;;5080256;28;20016;-73
2023/09/05 03:53:21;;;;;;;3.65;1.13;;;15.30;99.90;;;;;;5061710;28;20017;-73
2023/09/05 03:55:47;;;;;;;2.67;1.48;;;15.30;99.90;;;;;;5079434;28;20025;-73
2023/09/05 03:58:13;;;;;;;4.07;1.27;;;15.30;99.90;;;;;;5080109;28;20479;-73
2023/09/05 04:00:39;;;;;;;6.32;1.67;;;15.30;99.90;;;;;;5079891;28;20063;-73
2023/09/05 04:03:05;;;;;;;3.00;1.30;;;15.30;99.90;;;;;;5079358;28;20024;-73
2023/09/05 04:05:34;;;;;;;2.03;1.10;;;15.30;99.90;;;;;;5079726;28;20096;-73
2023/09/05 04:08:00;;;;;;;2.92;1.50;;;15.20;99.90;;;;;;5061716;28;20032;-73
2023/09/05 04:10:25;;;;;;;3.40;1.70;;;15.20;99.90;;;;;;5061734;28;20027;-73
2023/09/05 04:12:51;;;;;;;2.35;1.52;;;15.20;99.90;;;;;;5079609;28;20437;-73
2023/09/05 04:15:21;;;;;;;5.57;1.80;;;15.20;99.90;;;;;;5079334;28;20047;-72
2023/09/05 04:17:47;;;;;;;4.82;2.08;;;15.20;99.90;;;;;;5079969;28;20475;-72
2023/09/05 04:20:13;;;;;;;3.20;1.58;;;15.20;99.90;;;;;;5079358;28;20009;-73
2023/09/05 04:22:39;;;;;;;3.88;1.85;;;15.30;99.90;;;;;;5079435;28;20028;-73
2023/09/05 04:25:06;;;;;;;2.60;1.58;;;15.20;99.90;;;;;;5079355;28;20071;-73
2023/09/05 04:27:32;;;;;;;6.07;2.35;;;15.20;99.90;;;;;;5079383;28;20406;-73
2023/09/05 04:29:58;;;;;;;2.75;1.40;;;15.20;99.90;;;;;;5077345;28;20096;-73
2023/09/05 04:32:28;;;;;;;4.32;1.83;;;15.20;99.90;;;;;;5076543;28;20056;-73
2023/09/05 04:34:56;;;;;;;6.30;1.70;;;15.20;99.90;;;;;;5076021;28;20016;-73
2023/09/05 04:37:21;;;;;;;3.50;1.38;;;15.20;99.90;;;;;;5075956;28;20479;-73
2023/09/05 04:39:47;;;;;;;2.88;1.67;;;15.20;99.90;;;;;;5075930;28;20039;-73
2023/09/05 04:42:12;;;;;;;3.40;1.98;;;15.20;99.90;;;;;;5058129;28;20029;-72
2023/09/05 04:44:38;;;;;;;3.83;1.30;;;15.20;99.90;;;;;;5075947;28;20024;-73
2023/09/05 04:47:26;;;;;;;3.42;1.40;;;15.20;99.90;;;;;;5075823;28;20158;-73
2023/09/05 04:49:58;;;;;;;1.92;1.35;;;15.20;99.90;;;;;;5076518;28;20119;-73
2023/09/05 04:52:27;;;;;;;2.85;1.52;;;15.20;99.90;;;;;;5075639;28;20036;-72
2023/09/05 04:54:56;;;;;;;;;;;15.30;99.90;;;;;;5076115;28;20024;-72
2023/09/05 04:57:22;;;;;;;2.13;1.25;;;15.20;99.90;;;;;;5076803;28;19908;-72
2023/09/05 04:59:48;;;;;;;5.25;1.65;;;15.30;99.90;;;;;;5075666;28;20498;-72
2023/09/05 05:02:15;;;;;;;2.58;0.82;;;15.30;99.90;;;;;;5075522;28;20024;-73
2023/09/05 05:04:41;;;;;;;3.20;1.30;;;15.20;99.90;;;;;;5075456;28;20427;-73
2023/09/05 05:07:10;;;;;;;2.70;1.10;;;15.20;99.90;;;;;;5057789;28;20054;-73
2023/09/05 05:09:39;;;;;;;3.28;1.27;;;15.20;99.90;;;;;;5075474;28;20056;-72
2023/09/05 05:12:05;;;;;;;;;;;15.20;99.90;;;;;;5057955;28;20016;-72
2023/09/05 05:14:30;;;;;;;1.98;1.00;;;15.20;99.90;;;;;;5075350;28;19957;-72
2023/09/05 05:16:56;;;;;;;3.95;1.38;;;15.20;99.90;;;;;;5075269;28;20023;-72
2023/09/05 05:19:22;;;;;;;2.60;1.20;;;15.20;99.90;;;;;;5057408;28;20026;-72
2023/09/05 05:21:52;;;;;;;3.03;1.33;;;15.20;99.90;;;;;;5057188;28;20023;-72
2023/09/05 05:24:18;;;;;;;6.90;1.40;;;15.20;99.90;;;;;;5074998;28;20396;-72
2023/09/05 05:26:44;;;;;;;2.65;1.25;;;15.20;99.90;;;;;;5057205;28;20028;-73
2023/09/05 05:29:10;;;;;;;3.65;0.85;;;15.30;99.90;;;;;;5075171;28;20036;-73
2023/09/05 05:31:37;;;;;;;2.28;1.35;;;15.30;99.90;;;;;;5057321;28;20391;-73
2023/09/05 05:34:03;;;;;;;2.40;1.17;;;15.30;99.90;;;;;;5057058;28;20029;-73
2023/09/05 05:36:29;;;;;;;2.55;0.88;;;15.30;99.90;;;;;;5074725;28;20391;-73
2023/09/05 05:38:55;;;;;;;5.47;0.93;;;15.40;99.90;;;;;;5074880;28;20539;-73
2023/09/05 05:41:21;;;;;;;4.78;1.02;;;15.40;99.90;;;;;;5074567;28;20038;-73
2023/09/05 05:43:47;;;;;;;2.60;1.05;;;15.50;99.90;;;;;;5074934;28;20029;-73
2023/09/05 05:46:14;;;;;;;2.72;0.93;;;15.50;99.90;;;;;;5074880;28;20077;-73
2023/09/05 05:48:41;;;;;;;3.08;0.80;;;15.60;99.90;;;;;;5074852;28;20016;-73
2023/09/05 05:51:07;;;;;;;2.17;0.80;;;15.70;99.90;;;;;;5056848;28;20016;-76
2023/09/05 05:53:32;;;;;;;3.13;1.08;;;15.80;99.90;;;;;;5075369;28;20031;-73
2023/09/05 05:55:58;;;;;;;1.27;0.60;;;15.90;99.90;;;;;;5075191;28;20032;-73
2023/09/05 05:58:24;;;;;;;7.72;0.98;;;16.00;99.90;;;;;;5074565;28;20031;-73
2023/09/05 06:00:52;;;;;;;1.60;0.50;;;16.10;99.90;;;;;;5074658;28;20391;-73
2023/09/05 06:03:19;;;;;;;1.27;0.52;;;16.30;99.90;;;;;;5074873;28;20028;-73
2023/09/05 06:05:45;;;;;;;2.17;0.60;;;16.40;99.90;;;;;;5074487;28;20031;-73
2023/09/05 06:08:11;;;;;;;1.55;0.40;;;16.60;99.90;;;;;;5056456;28;20052;-73
2023/09/05 06:10:36;;;;;;;3.22;0.57;;;16.70;99.90;;;;;;5056546;28;20066;-73
2023/09/05 06:13:04;;;;;;;2.47;0.30;;;16.80;99.90;;;;;;5055002;28;20032;-73
2023/09/05 06:15:33;;;;;;;0.45;0.38;;;17.00;99.90;;;;;;5071854;28;20025;-74
2023/09/05 06:18:00;;;;;;;2.28;0.70;;;17.10;99.90;;;;;;5073640;28;20027;-73
2023/09/05 06:20:25;;;;;;;0.73;0.20;;;17.30;99.90;;;;;;5073670;28;20021;-73
2023/09/05 06:22:51;;;;;;;3.00;0.82;;;17.30;99.90;;;;;;5073032;28;20077;-73
2023/09/05 06:25:21;;;;;;;1.90;0.38;;;17.40;99.90;;;;;;5074012;28;20337;-73
2023/09/05 06:27:47;;;;;;;0.85;0.20;;;17.50;99.90;;;;;;5056313;28;20111;-73
2023/09/05 06:30:13;;;;;;;2.22;0.50;;;17.80;99.90;;;;;;5074489;28;20105;-74
2023/09/05 06:32:40;;;;;;;1.10;0.35;;;17.80;99.90;;;;;;5073959;28;20115;-73
2023/09/05 06:35:05;;;;;;;0.50;0.08;;;17.90;99.90;;;;;;5055684;28;20107;-73
2023/09/05 06:37:33;;;;;;;0.55;0.20;;;18.00;99.90;;;;;;5073958;28;20147;-73
2023/09/05 06:40:00;;;;;;;1.60;0.40;;;18.10;99.90;;;;;;5074296;28;20041;-73
2023/09/05 06:42:26;;;;;;;0.50;0.10;;;18.20;99.90;;;;;;5073647;28;20605;-73
2023/09/05 06:44:52;;;;;;;5.78;0.15;;;18.40;99.90;;;;;;5055929;28;20056;-73
2023/09/05 06:47:18;;;;;;;3.03;0.35;;;18.50;99.90;;;;;;5074094;28;20051;-73
2023/09/05 06:49:44;;;;;;;2.28;0.22;;;18.60;99.90;;;;;;5073839;28;20027;-73
2023/09/05 06:52:09;;;;;;;0.80;0.10;;;18.80;99.90;;;;;;5055843;28;20029;-73
2023/09/05 06:54:35;;;;;;;1.27;0.20;;;18.90;99.90;;;;;;5055376;28;20020;-74
2023/09/05 06:57:01;;;;;;;1.90;0.20;;;19.00;99.90;;;;;;5073988;28;20418;-73
2023/09/05 06:59:26;;;;;;;3.72;0.10;;;19.10;99.90;;;;;;5073932;28;20107;-74
2023/09/05 07:01:52;;;;;;;1.50;0.10;;;19.30;99.90;;;;;;5073985;28;20147;-73
2023/09/05 07:04:18;;;;;;;1.20;0.20;;;19.40;99.90;;;;;;5073827;28;20028;-73
2023/09/05 07:06:45;;;;;;;0.73;0.17;;;19.60;99.90;;;;;;5073657;28;20024;-73
2023/09/05 07:09:10;;;;;;;3.72;0.30;;;19.80;99.90;;;;;;5073684;28;20387;-72
2023/09/05 07:11:36;;;;;;;1.67;0.43;;;19.80;99.90;;;;;;5073512;28;20103;-73
2023/09/05 07:14:02;;;;;;;1.15;0.10;;;19.90;99.90;;;;;;5074102;28;20169;-73
2023/09/05 07:16:27;;;;;;;0.82;0.20;;;20.10;99.90;;;;;;5073793;28;20024;-73
2023/09/05 07:18:53;;;;;;;1.95;0.10;;;20.20;99.90;;;;;;5073641;28;20057;-73
2023/09/05 07:21:18;;;;;;;0.90;0.10;;;20.30;99.90;;;;;;5073676;28;20541;-72
2023/09/05 07:23:44;;;;;;;2.08;0.10;;;20.40;99.90;;;;;;5074200;28;20099;-73
2023/09/05 07:26:10;;;;;;;0.98;0.00;;;20.50;99.90;;;;;;5055523;28;20134;-72
2023/09/05 07:28:35;;;;;;;1.17;0.10;;;20.60;99.90;;;;;;5073368;28;20024;-73
2023/09/05 07:31:01;;;;;;;0.30;0.10;;;20.60;99.90;;;;;;5073887;28;20024;-73
2023/09/05 07:33:27;;;;;;;0.47;0.10;;;20.80;99.90;;;;;;5073929;28;20024;-73
2023/09/05 07:35:52;;;;;;;1.33;0.10;;;20.90;99.90;;;;;;5073202;28;20016;-73
2023/09/05 07:38:21;;;;;;;0.70;0.10;;;20.90;99.90;;;;;;5073515;28;20020;-74
2023/09/05 07:40:48;;;;;;;0.88;0.10;;;21.00;99.90;;;;;;5074012;28;20020;-73
2023/09/05 07:43:14;;;;;;;0.77;0.00;;;21.10;99.90;;;;;;5073404;28;20105;-72
2023/09/05 07:45:39;;;;;;;1.05;0.10;;;21.20;99.90;;;;;;5073233;28;20080;-73
2023/09/05 07:48:08;;;;;;;1.67;0.32;;;21.30;99.90;;;;;;5073575;28;20020;-73
2023/09/05 07:50:34;;;;;;;0.80;0.20;;;21.30;99.90;;;;;;5073237;28;20024;-73
2023/09/05 07:53:00;;;;;;;0.73;0.10;;;21.40;99.90;;;;;;5073665;28;20027;-73
2023/09/05 07:55:26;;;;;;;1.17;0.20;;;21.50;99.90;;;;;;5073261;28;20455;-73
2023/09/05 07:57:52;;;;;;;1.20;0.13;;;21.70;99.90;;;;;;5073103;28;20392;-73
2023/09/05 08:00:19;;;;;;;0.45;0.00;;;21.70;99.90;;;;;;5054991;28;20449;-73
2023/09/05 08:02:44;;;;;;;0.25;0.10;;;21.80;99.90;;;;;;5073102;28;20031;-73
2023/09/05 08:05:11;;;;;;;2.50;0.47;;;21.80;99.90;;;;;;5073321;28;20021;-73
2023/09/05 08:07:40;;;;;;;0.70;0.10;;;22.00;99.90;;;;;;5058701;28;20031;-73
2023/09/05 08:10:07;;;;;;;1.42;0.13;;;22.00;99.90;;;;;;5076901;28;20471;-72
2023/09/05 08:12:32;;;;;;;1.80;0.10;;;22.10;99.90;;;;;;5076854;28;20031;-73
2023/09/05 08:14:58;;;;;;;0.90;0.25;;;22.20;99.90;;;;;;5058626;28;20119;-72
2023/09/05 08:17:23;;;;;;;1.05;0.00;;;22.40;99.90;;;;;;5076671;28;20025;-73
2023/09/05 08:19:49;;;;;;;1.70;0.10;;;22.40;99.90;;;;;;5058939;28;20017;-73
2023/09/05 08:22:15;;;;;;;0.65;0.10;;;22.60;99.90;;;;;;5076525;28;20020;-73
2023/09/05 08:24:40;;;;;;;1.13;0.13;;;22.60;99.90;;;;;;5076354;28;20023;-74
2023/09/05 08:27:11;;;;;;;0.40;0.10;;;22.70;99.90;;;;;;5058667;28;20038;-73
2023/09/05 08:29:37;;;;;;;0.10;0.00;;;22.80;99.90;;;;;;5058718;28;20021;-73
2023/09/05 08:32:03;;;;;;;0.60;0.15;;;22.90;99.90;;;;;;5058662;28;20086;-73
2023/09/05 08:34:28;;;;;;;0.63;0.10;;;22.90;99.90;;;;;;5076470;28;20044;-73
2023/09/05 08:36:54;;;;;;;1.40;0.10;;;23.10;99.90;;;;;;5076397;28;20054;-73
2023/09/05 08:39:19;;;;;;;0.50;0.10;;;23.20;99.90;;;;;;5058632;28;20016;-73
2023/09/05 08:41:46;;;;;;;0.47;0.00;;;23.20;99.90;;;;;;5076495;28;20029;-73
2023/09/05 08:44:12;;;;;;;3.28;0.20;;;23.20;99.90;;;;;;5076844;28;20064;-73
2023/09/05 08:46:40;;;;;;;0.40;0.10;;;23.30;99.90;;;;;;5076199;28;20028;-73
2023/09/05 08:49:05;;;;;;;1.15;0.05;;;23.40;99.90;;;;;;5076648;28;20039;-73
2023/09/05 08:51:35;;;;;;;1.17;0.20;;;23.50;99.90;;;;;;5076180;28;20032;-73
2023/09/05 08:54:03;;;;;;;3.65;0.10;;;23.60;99.90;;;;;;5076211;28;20028;-73
2023/09/05 08:56:29;;;;;;;;;;;23.70;99.90;;;;;;5058570;28;20027;-73
2023/09/05 08:58:57;;;;;;;2.70;0.10;;;23.70;99.90;;;;;;5058247;28;19904;-73
2023/09/05 09:01:25;;;;;;;0.35;0.00;;;23.80;99.90;;;;;;5057872;28;20090;-73
2023/09/05 09:03:51;;;;;;;0.85;0.10;;;23.90;99.90;;;;;;5075600;28;20013;-73
2023/09/05 09:06:24;;;;;;;1.55;0.10;;;23.90;99.90;;;;;;5075798;28;20427;-73
2023/09/05 09:08:50;;;;;;;1.23;0.10;;;23.90;99.90;;;;;;5075900;28;20016;-73
2023/09/05 09:11:21;;;;;;;5.68;0.20;;;24.10;99.90;;;;;;5076082;28;20021;-73
2023/09/05 09:13:51;;;;;;;2.10;0.10;;;24.20;99.90;;;;;;5076617;28;20047;-73
2023/09/05 09:16:18;;;;;;;19.95;0.43;;;24.30;99.90;;;;;;5075190;28;20025;-72
2023/09/05 09:18:58;;;;;;;0.35;0.10;;;24.30;99.90;;;;;;5075633;28;20475;-73
2023/09/05 09:21:28;;;;;;;1.85;0.20;;;24.30;99.90;;;;;;5075552;28;20472;-73
2023/09/05 09:24:07;;;;;;;1.88;0.30;;;24.30;99.90;;;;;;5075390;28;20016;-73
2023/09/05 09:26:33;;;;;;;;;;;24.40;99.90;;;;;;5075852;28;20020;-73
2023/09/05 09:29:00;;;;;;;1.05;0.05;;;24.50;99.90;;;;;;5075365;28;19912;-73
2023/09/05 09:31:29;;;;;;;1.17;0.25;;;24.70;99.90;;;;;;5075526;28;20107;-73
2023/09/05 09:33:58;;;;;;;2.22;0.15;;;24.70;99.90;;;;;;5076080;28;20021;-73
2023/09/05 09:36:36;;;;;;;0.40;0.10;;;24.90;99.90;;;;;;5075087;28;20032;-73
2023/09/05 09:39:12;;;;;;;7.22;0.20;;;25.00;99.90;;;;;;5075352;28;20017;-73
2023/09/05 09:41:46;;;;;;;1.60;0.00;;;25.10;99.90;;;;;;5075346;28;20020;-73
2023/09/05 09:44:25;;;;;;;1.08;0.10;;;25.20;99.90;;;;;;5075896;28;20376;-73
2023/09/05 09:46:52;;;;;;;2.63;0.10;;;25.20;99.90;;;;;;5075268;28;20129;-73
2023/09/05 09:49:19;;;;;;;0.52;0.00;;;25.20;99.90;;;;;;5057385;28;20025;-73
2023/09/05 09:51:48;;;;;;;0.85;0.10;;;25.20;99.90;;;;;;5075096;28;20433;-73
2023/09/05 09:54:15;;;;;;;;;;;25.10;99.90;;;;;;5075189;28;20090;-73
2023/09/05 09:56:42;;;;;;;2.05;0.13;;;25.20;99.90;;;;;;5075291;28;19958;-73
2023/09/05 09:59:10;;;;;;;0.80;0.10;;;25.30;99.90;;;;;;5057093;28;20086;-73
2023/09/05 10:01:38;;;;;;;;;;;25.40;99.90;;;;;;5057474;28;20373;-73
2023/09/05 10:04:04;;;;;;;0.55;0.15;;;25.50;99.90;;;;;;5074579;28;20452;-73
2023/09/05 10:06:30;;;;;;;0.57;0.10;;;25.60;99.90;;;;;;5074702;28;20024;-73
2023/09/05 10:08:57;;;;;;;0.98;0.25;;;25.70;99.90;;;;;;5056371;28;20073;-73
2023/09/05 10:11:25;;;;;;;0.45;0.10;;;25.80;99.90;;;;;;5056762;28;20380;-72
2023/09/05 10:13:51;;;;;;;2.53;0.47;;;25.90;99.90;;;;;;5074388;28;20016;-73
2023/09/05 10:16:18;;;;;;;0.63;0.00;;;26.00;99.90;;;;;;5056680;28;20058;-74
2023/09/05 10:18:44;;;;;;;3.22;0.20;;;26.10;99.90;;;;;;5074638;28;20533;-73
2023/09/05 10:21:10;;;;;;;0.60;0.00;;;26.20;99.80;;;;;;5074564;28;20158;-73
2023/09/05 10:23:38;;;;;;;0.98;0.00;;;26.30;99.90;;;;;;5056506;28;20024;-73
2023/09/05 10:26:05;;;;;;;0.37;0.00;;;26.40;99.90;;;;;;5074243;28;20365;-72
2023/09/05 10:28:32;;;;;;;0.85;0.43;;;26.50;99.60;;;;;;5073518;28;20012;-73
2023/09/05 10:31:07;;;;;;;4.93;0.13;;;26.60;99.60;;;;;;5056391;28;20021;-73
2023/09/05 10:33:36;;;;;;;4.03;0.20;;;26.70;99.80;;;;;;5056194;28;20017;-73
2023/09/05 10:36:02;;;;;;;0.35;0.13;;;26.80;99.20;;;;;;5073739;28;20027;-72
2023/09/05 10:38:29;;;;;;;1.33;0.52;;;26.90;99.20;;;;;;5056164;28;20020;-73
2023/09/05 10:40:55;;;;;;;0.20;0.03;;;27.00;99.20;;;;;;5056126;28;20028;-73
2023/09/05 10:43:25;;;;;;;7.32;0.55;;;27.20;99.00;;;;;;5056074;28;20017;-73
2023/09/05 10:45:59;;;;;;;1.00;0.10;;;27.30;98.70;;;;;;5074140;28;20025;-72
2023/09/05 10:48:40;;;;;;;3.15;0.08;;;27.30;97.70;;;;;;5074499;28;20028;-73
2023/09/05 10:51:13;;;;;;;0.43;0.10;;;27.30;98.10;;;;;;5073920;28;20063;-72
2023/09/05 10:53:40;;;;;;;0.55;0.00;;;27.40;98.10;;;;;;5074342;28;20016;-74
2023/09/05 10:56:26;;;;;;;2.80;0.17;;;27.50;98.00;;;;;;5073627;28;20095;-72
2023/09/05 10:58:54;;;;;;;1.83;0.32;;;27.70;97.80;;;;;;5073383;28;20056;-73
2023/09/05 11:01:44;;;;;;;0.65;0.10;;;27.90;97.70;;;;;;5073897;28;20103;-73
2023/09/05 11:04:18;;;;;;;1.95;0.00;;;28.00;96.80;;;;;;5074480;28;20383;-73
2023/09/05 11:06:58;;;;;;;0.43;0.10;;;28.20;96.60;;;;;;5073804;28;20104;-73
2023/09/05 11:09:24;;;;;;;0.45;0.00;;;28.30;96.40;;;;;;5073917;28;20475;-73
2023/09/05 11:11:52;;;;;;;1.70;0.10;;;28.50;96.20;;;;;;5073525;28;20496;-73
2023/09/05 11:14:29;;;;;;;0.20;0.05;;;28.50;96.70;;;;;;5055541;28;20017;-74
2023/09/05 11:16:56;;;;;;;3.05;0.10;;;28.60;95.60;;;;;;5074230;28;20027;-73
2023/09/05 11:19:32;;;;;;;1.05;0.10;;;28.80;96.00;;;;;;5055681;28;20063;-73
2023/09/05 11:22:11;;;;;;;0.70;0.10;;;29.00;95.50;;;;;;5073514;28;20029;-73
2023/09/05 11:24:45;;;;;;;1.33;0.10;;;29.10;96.00;;;;;;5055787;28;20076;-74
2023/09/05 11:27:11;;;;;;;0.15;0.10;;;29.30;95.50;;;;;;5074256;28;20020;-73
2023/09/05 11:29:39;;;;;;;1.08;0.10;;;29.40;95.50;;;;;;5073395;28;20024;-73
2023/09/05 11:32:06;;;;;;;0.38;0.10;;;29.50;94.50;;;;;;5073313;28;20095;-72
2023/09/05 11:34:33;;;;;;;0.63;0.00;;;29.70;93.80;;;;;;5055313;28;20028;-73
2023/09/05 11:37:00;;;;;;;1.07;0.00;;;29.70;93.70;;;;;;5073953;28;20048;-73
2023/09/05 11:39:29;;;;;;;1.35;0.38;;;29.70;93.20;;;;;;5056588;28;20021;-72
2023/09/05 11:41:58;;;;;;;0.82;0.00;;;29.80;93.80;;;;;;5059250;28;20519;-73
2023/09/05 11:44:39;;;;;;;0.88;0.08;;;29.90;93.80;;;;;;5059670;28;20028;-73
2023/09/05 11:47:06;;;;;;;1.73;0.17;;;30.20;93.30;;;;;;5077248;28;20035;-73
2023/09/05 11:49:34;;;;;;;0.20;0.03;;;30.40;93.60;;;;;;5077950;28;20020;-73
2023/09/05 11:52:00;;;;;;;1.40;0.00;;;30.60;92.70;;;;;;5077158;28;20032;-74
2023/09/05 11:54:30;;;;;;;0.73;0.00;;;30.80;92.70;;;;;;5077030;28;20017;-74
2023/09/05 11:56:56;;;;;;;0.50;0.10;;;30.90;90.50;;;;;;5077585;28;20021;-73
2023/09/05 11:59:23;;;;;;;0.60;0.08;;;31.00;91.70;;;;;;5078519;28;20107;-73
2023/09/05 12:01:51;;;;;;;2.58;0.00;;;31.10;91.00;;;;;;5077298;28;20031;-73
2023/09/05 12:04:16;;;;;;;0.68;0.00;;;31.20;91.10;;;;;;5077195;28;20021;-73
2023/09/05 12:06:47;;;;;;;1.35;0.00;;;31.40;91.20;;;;;;5076894;28;20424;-73
2023/09/05 12:09:12;;;;;;;1.38;0.30;;;31.60;91.40;;;;;;5059158;28;20032;-73
2023/09/05 12:11:38;;;;;;;1.20;0.57;;;31.80;90.40;;;;;;5058925;28;20107;-73
2023/09/05 12:14:04;;;;;;;0.65;0.10;;;32.00;89.70;;;;;;5076982;28;20021;-73
2023/09/05 12:16:30;;;;;;;0.15;0.00;;;32.20;88.90;;;;;;5076565;28;20468;-72
2023/09/05 12:19:00;;;;;;;2.55;0.10;;;32.20;87.60;;;;;;5076700;28;20098;-72
2023/09/05 12:21:39;;;;;;;0.30;0.00;;;32.30;87.30;;;;;;5077360;28;20100;-73
2023/09/05 12:24:22;;;;;;;1.25;0.00;;;32.40;87.90;;;;;;5076620;28;20017;-73
2023/09/05 12:26:59;;;;;;;0.30;0.10;;;32.40;85.00;;;;;;5076235;28;20013;-73
2023/09/05 12:29:40;;;;;;;0.80;0.10;;;32.50;84.10;;;;;;5058496;28;20031;-72
2023/09/05 12:32:06;;;;;;;0.20;0.00;;;32.60;84.40;;;;;;5058242;28;20506;-73
2023/09/05 12:34:32;;;;;;;4.72;0.20;;;32.70;84.80;;;;;;5076290;28;20032;-73
2023/09/05 12:36:57;;;;;;;1.45;0.10;;;32.90;83.90;;;;;;5058340;28;20036;-73
2023/09/05 12:39:23;;;;;;;0.28;0.05;;;33.00;82.50;;;;;;5058323;28;20411;-73
2023/09/05 12:41:50;;;;;;;6.97;0.63;;;33.10;83.30;;;;;;5076954;28;20013;-72
2023/09/05 12:44:16;;;;;;;0.85;0.10;;;33.20;81.80;;;;;;5076409;28;20131;-72
2023/09/05 12:46:42;;;;;;;0.32;0.00;;;33.20;80.60;;;;;;5058242;28;20025;-73
2023/09/05 12:49:10;;;;;;;3.30;0.00;;;33.20;79.40;;;;;;5076351;28;20012;-72